sensor_id;sensor_type;location;lat;lon;timestamp;pressure;altitude;pressure_sealevel;temperature;humidity
43838;BME280;65998;46.256;7.534;2023-05-10T00:02:11;86707.50;;;17.51;53.82
43838;BME280;65998;46.256;7.534;2023-05-10T00:04:37;86699.91;;;17.49;53.69
43838;BME280;65998;46.256;7.534;2023-05-10T00:07:03;86697.13;;;17.49;53.64
43838;BME280;65998;46.256;7.534;2023-05-10T00:09:28;86700.59;;;17.50;53.68
43838;BME280;65998;46.256;7.534;2023-05-10T00:11:54;86692.94;;;17.50;53.64
43838;BME280;65998;46.256;7.534;2023-05-10T00:14:20;86690.91;;;17.49;53.61
43838;BME280;65998;46.256;7.534;2023-05-10T00:16:46;86688.81;;;17.49;53.71
43838;BME280;65998;46.256;7.534;2023-05-10T00:19:12;86683.91;;;17.50;53.68
43838;BME280;65998;46.256;7.534;2023-05-10T00:21:38;86682.56;;;17.49;53.80
43838;BME280;65998;46.256;7.534;2023-05-10T00:24:04;86676.25;;;17.50;53.71
43838;BME280;65998;46.256;7.534;2023-05-10T00:26:30;86679.13;;;17.48;53.59
43838;BME280;65998;46.256;7.534;2023-05-10T00:28:56;86675.66;;;17.48;53.66
43838;BME280;65998;46.256;7.534;2023-05-10T00:31:21;86678.44;;;17.48;53.81
43838;BME280;65998;46.256;7.534;2023-05-10T00:33:47;86672.22;;;17.47;53.83
43838;BME280;65998;46.256;7.534;2023-05-10T00:36:13;86680.53;;;17.47;53.89
43838;BME280;65998;46.256;7.534;2023-05-10T00:38:39;86680.53;;;17.47;53.79
43838;BME280;65998;46.256;7.534;2023-05-10T00:41:05;86680.63;;;17.45;53.82
43838;BME280;65998;46.256;7.534;2023-05-10T00:43:31;86688.97;;;17.45;53.78
43838;BME280;65998;46.256;7.534;2023-05-10T00:45:57;86691.75;;;17.45;53.51
43838;BME280;65998;46.256;7.534;2023-05-10T00:48:23;86695.28;;;17.44;53.83
43838;BME280;65998;46.256;7.534;2023-05-10T00:50:49;86691.16;;;17.43;53.81
43838;BME280;65998;46.256;7.534;2023-05-10T00:53:15;86695.94;;;17.44;53.66
43838;BME280;65998;46.256;7.534;2023-05-10T00:55:42;86705.72;;;17.43;53.71
43838;BME280;65998;46.256;7.534;2023-05-10T00:58:07;86693.91;;;17.43;53.66
43838;BME280;65998;46.256;7.534;2023-05-10T01:00:33;86707.81;;;17.43;53.59
43838;BME280;65998;46.256;7.534;2023-05-10T01:02:59;86706.47;;;17.42;53.68
43838;BME280;65998;46.256;7.534;2023-05-10T01:05:25;86703.00;;;17.41;53.57
43838;BME280;65998;46.256;7.534;2023-05-10T01:07:51;86703.00;;;17.41;53.56
43838;BME280;65998;46.256;7.534;2023-05-10T01:10:17;86692.56;;;17.42;53.61
43838;BME280;65998;46.256;7.534;2023-05-10T01:12:45;86693.25;;;17.42;53.62
43838;BME280;65998;46.256;7.534;2023-05-10T01:15:13;86689.78;;;17.42;53.61
43838;BME280;65998;46.256;7.534;2023-05-10T01:17:42;86687.03;;;17.42;53.55
43838;BME280;65998;46.256;7.534;2023-05-10T01:20:10;86691.91;;;17.41;53.75
43838;BME280;65998;46.256;7.534;2023-05-10T01:23:02;86680.03;;;17.43;53.54
43838;BME280;65998;46.256;7.534;2023-05-10T01:36:45;86676.00;;;17.40;53.59
43838;BME280;65998;46.256;7.534;2023-05-10T01:41:56;86666.31;;;17.39;53.58
43838;BME280;65998;46.256;7.534;2023-05-10T01:44:37;86669.75;;;17.39;53.40
43838;BME280;65998;46.256;7.534;2023-05-10T01:47:09;86674.63;;;17.39;53.42
43838;BME280;65998;46.256;7.534;2023-05-10T01:49:48;86675.31;;;17.39;53.40
43838;BME280;65998;46.256;7.534;2023-05-10T01:52:18;86678.16;;;17.37;53.39
43838;BME280;65998;46.256;7.534;2023-05-10T01:54:50;86687.84;;;17.38;53.37
43838;BME280;65998;46.256;7.534;2023-05-10T01:57:20;86676.16;;;17.36;53.61
43838;BME280;65998;46.256;7.534;2023-05-10T01:59:50;86680.28;;;17.37;53.46
43838;BME280;65998;46.256;7.534;2023-05-10T02:02:20;86674.72;;;17.37;53.33
43838;BME280;65998;46.256;7.534;2023-05-10T02:04:47;86675.47;;;17.35;53.44
43838;BME280;65998;46.256;7.534;2023-05-10T02:07:15;86683.81;;;17.35;53.45
43838;BME280;65998;46.256;7.534;2023-05-10T02:09:44;86681.03;;;17.35;53.45
43838;BME280;65998;46.256;7.534;2023-05-10T02:12:13;86678.94;;;17.36;53.43
43838;BME280;65998;46.256;7.534;2023-05-10T02:14:40;86678.25;;;17.35;53.55
43838;BME280;65998;46.256;7.534;2023-05-10T02:17:07;86688.00;;;17.34;53.66
43838;BME280;65998;46.256;7.534;2023-05-10T02:19:36;86686.66;;;17.33;53.62
43838;BME280;65998;46.256;7.534;2023-05-10T02:22:03;86684.63;;;17.32;53.64
43838;BME280;65998;46.256;7.534;2023-05-10T02:24:29;86692.97;;;17.32;53.76
43838;BME280;65998;46.256;7.534;2023-05-10T02:26:58;86683.22;;;17.33;53.55
43838;BME280;65998;46.256;7.534;2023-05-10T02:29:27;86684.63;;;17.32;53.47
43838;BME280;65998;46.256;7.534;2023-05-10T02:31:54;86684.63;;;17.32;53.56
43838;BME280;65998;46.256;7.534;2023-05-10T02:34:25;86682.53;;;17.32;53.54
43838;BME280;65998;46.256;7.534;2023-05-10T02:36:53;86683.28;;;17.31;53.65
43838;BME280;65998;46.256;7.534;2023-05-10T02:39:20;86689.53;;;17.31;53.56
43838;BME280;65998;46.256;7.534;2023-05-10T02:41:48;86688.84;;;17.31;53.52
43838;BME280;65998;46.256;7.534;2023-05-10T02:44:15;86679.16;;;17.30;53.56
43838;BME280;65998;46.256;7.534;2023-05-10T02:46:43;86686.16;;;17.29;53.80
43838;BME280;65998;46.256;7.534;2023-05-10T02:49:09;86685.47;;;17.28;53.65
43838;BME280;65998;46.256;7.534;2023-05-10T02:51:40;86684.03;;;17.29;53.57
43838;BME280;65998;46.256;7.534;2023-05-10T02:54:13;86681.94;;;17.30;53.58
43838;BME280;65998;46.256;7.534;2023-05-10T02:56:46;86690.28;;;17.30;53.56
43838;BME280;65998;46.256;7.534;2023-05-10T02:59:12;86689.00;;;17.27;53.54
43838;BME280;65998;46.256;7.534;2023-05-10T03:01:38;86685.53;;;17.26;53.57
43838;BME280;65998;46.256;7.534;2023-05-10T03:04:04;86697.31;;;17.27;53.68
43838;BME280;65998;46.256;7.534;2023-05-10T03:06:31;86686.31;;;17.24;53.58
43838;BME280;65998;46.256;7.534;2023-05-10T03:08:56;86683.53;;;17.24;53.36
43838;BME280;65998;46.256;7.534;2023-05-10T03:17:38;86693.88;;;17.26;53.28
43838;BME280;65998;46.256;7.534;2023-05-10T03:20:11;86698.09;;;17.25;53.31
43838;BME280;65998;46.256;7.534;2023-05-10T03:22:45;86691.19;;;17.24;53.46
43838;BME280;65998;46.256;7.534;2023-05-10T03:25:15;86687.06;;;17.23;53.19
43838;BME280;65998;46.256;7.534;2023-05-10T03:27:43;86686.38;;;17.22;53.28
43838;BME280;65998;46.256;7.534;2023-05-10T03:30:12;86682.94;;;17.22;53.22
43838;BME280;65998;46.256;7.534;2023-05-10T03:32:39;86685.03;;;17.21;53.31
43838;BME280;65998;46.256;7.534;2023-05-10T03:35:12;86681.50;;;17.23;53.20
43838;BME280;65998;46.256;7.534;2023-05-10T03:37:38;86683.00;;;17.20;53.24
43838;BME280;65998;46.256;7.534;2023-05-10T03:40:06;86683.00;;;17.20;53.29
43838;BME280;65998;46.256;7.534;2023-05-10T03:42:32;86680.97;;;17.18;53.30
43838;BME280;65998;46.256;7.534;2023-05-10T03:44:58;86676.84;;;17.17;53.31
43838;BME280;65998;46.256;7.534;2023-05-10T03:47:24;86679.63;;;17.17;53.31
43838;BME280;65998;46.256;7.534;2023-05-10T03:49:50;86667.19;;;17.16;53.28
43838;BME280;65998;46.256;7.534;2023-05-10T03:52:15;86678.97;;;17.17;53.36
43838;BME280;65998;46.256;7.534;2023-05-10T03:54:41;86667.19;;;17.16;53.53
43838;BME280;65998;46.256;7.534;2023-05-10T03:57:07;86663.72;;;17.16;53.44
43838;BME280;65998;46.256;7.534;2023-05-10T03:59:33;86651.28;;;17.15;53.47
43838;BME280;65998;46.256;7.534;2023-05-10T04:01:59;86656.81;;;17.15;53.49
43838;BME280;65998;46.256;7.534;2023-05-10T04:04:24;86662.38;;;17.15;53.39
43838;BME280;65998;46.256;7.534;2023-05-10T04:06:50;86663.81;;;17.14;53.34
43838;BME280;65998;46.256;7.534;2023-05-10T04:09:16;86661.03;;;17.14;53.47
43838;BME280;65998;46.256;7.534;2023-05-10T04:11:42;86660.34;;;17.13;53.43
43838;BME280;65998;46.256;7.534;2023-05-10T04:14:08;86651.34;;;17.13;53.45
43838;BME280;65998;46.256;7.534;2023-05-10T04:16:34;86655.56;;;17.12;53.58
43838;BME280;65998;46.256;7.534;2023-05-10T04:18:59;86654.13;;;17.13;53.55
43838;BME280;65998;46.256;7.534;2023-05-10T04:21:25;86652.78;;;17.12;53.55
43838;BME280;65998;46.256;7.534;2023-05-10T04:23:51;86650.00;;;17.12;53.63
43838;BME280;65998;46.256;7.534;2023-05-10T04:26:17;86651.44;;;17.11;53.64
43838;BME280;65998;46.256;7.534;2023-05-10T04:28:43;86645.88;;;17.11;53.49
43838;BME280;65998;46.256;7.534;2023-05-10T04:31:09;86647.31;;;17.10;53.34
43838;BME280;65998;46.256;7.534;2023-05-10T04:33:36;86650.09;;;17.10;53.39
43838;BME280;65998;46.256;7.534;2023-05-10T04:36:02;86648.72;;;17.09;53.60
43838;BME280;65998;46.256;7.534;2023-05-10T04:38:29;86650.84;;;17.08;53.57
43838;BME280;65998;46.256;7.534;2023-05-10T04:41:06;86650.09;;;17.10;53.49
43838;BME280;65998;46.256;7.534;2023-05-10T04:43:32;86644.69;;;17.06;53.57
43838;BME280;65998;46.256;7.534;2023-05-10T04:45:58;86645.34;;;17.06;53.37
43838;BME280;65998;46.256;7.534;2023-05-10T04:48:23;86648.13;;;17.06;53.53
43838;BME280;65998;46.256;7.534;2023-05-10T04:50:49;86655.88;;;17.04;53.42
43838;BME280;65998;46.256;7.534;2023-05-10T04:53:15;86653.09;;;17.04;53.53
43838;BME280;65998;46.256;7.534;2023-05-10T04:55:41;86653.09;;;17.04;53.40
43838;BME280;65998;46.256;7.534;2023-05-10T04:58:06;86658.66;;;17.04;53.54
43838;BME280;65998;46.256;7.534;2023-05-10T05:00:33;86653.75;;;17.04;53.48
43838;BME280;65998;46.256;7.534;2023-05-10T05:02:59;86663.53;;;17.03;53.50
43838;BME280;65998;46.256;7.534;2023-05-10T05:05:25;86664.94;;;17.02;53.57
43838;BME280;65998;46.256;7.534;2023-05-10T05:07:51;86662.94;;;17.01;53.59
43838;BME280;65998;46.256;7.534;2023-05-10T05:10:17;86658.06;;;17.01;53.56
43838;BME280;65998;46.256;7.534;2023-05-10T05:12:43;86662.94;;;17.01;53.51
43838;BME280;65998;46.256;7.534;2023-05-10T05:15:09;86669.16;;;17.01;53.44
43838;BME280;65998;46.256;7.534;2023-05-10T05:17:35;86662.25;;;17.00;53.61
43838;BME280;65998;46.256;7.534;2023-05-10T05:20:01;86660.81;;;17.01;53.57
43838;BME280;65998;46.256;7.534;2023-05-10T05:22:27;86665.09;;;16.98;53.20
43838;BME280;65998;46.256;7.534;2023-05-10T05:24:57;86659.41;;;17.02;53.49
43838;BME280;65998;46.256;7.534;2023-05-10T05:27:22;86662.31;;;16.98;53.24
43838;BME280;65998;46.256;7.534;2023-05-10T05:29:48;86663.06;;;16.97;53.34
43838;BME280;65998;46.256;7.534;2023-05-10T05:32:14;86667.88;;;16.98;53.26
43838;BME280;65998;46.256;7.534;2023-05-10T05:34:40;86665.84;;;16.97;53.27
43838;BME280;65998;46.256;7.534;2023-05-10T05:37:06;86676.97;;;16.97;53.15
43838;BME280;65998;46.256;7.534;2023-05-10T05:39:31;86676.28;;;16.96;53.29
43838;BME280;65998;46.256;7.534;2023-05-10T05:41:57;86679.06;;;16.96;53.37
43838;BME280;65998;46.256;7.534;2023-05-10T05:44:23;86678.38;;;16.96;53.30
43838;BME280;65998;46.256;7.534;2023-05-10T05:46:49;86673.59;;;16.94;53.25
43838;BME280;65998;46.256;7.534;2023-05-10T05:49:15;86672.91;;;16.94;53.21
43838;BME280;65998;46.256;7.534;2023-05-10T05:51:41;86670.13;;;16.94;53.18
43838;BME280;65998;46.256;7.534;2023-05-10T05:54:06;86675.00;;;16.93;53.13
43838;BME280;65998;46.256;7.534;2023-05-10T05:56:32;86671.56;;;16.92;53.06
43838;BME280;65998;46.256;7.534;2023-05-10T05:58:58;86673.66;;;16.92;53.06
43838;BME280;65998;46.256;7.534;2023-05-10T06:01:24;86685.44;;;16.92;53.08
43838;BME280;65998;46.256;7.534;2023-05-10T06:03:49;86687.53;;;16.92;53.15
43838;BME280;65998;46.256;7.534;2023-05-10T06:06:15;86688.28;;;16.90;52.94
43838;BME280;65998;46.256;7.534;2023-05-10T06:08:41;86682.75;;;16.90;52.87
43838;BME280;65998;46.256;7.534;2023-05-10T06:11:07;86681.38;;;16.89;53.00
43838;BME280;65998;46.256;7.534;2023-05-10T06:13:33;86682.75;;;16.90;52.84
43838;BME280;65998;46.256;7.534;2023-05-10T06:15:59;86678.63;;;16.89;52.86
43838;BME280;65998;46.256;7.534;2023-05-10T06:18:24;86683.50;;;16.89;52.71
43838;BME280;65998;46.256;7.534;2023-05-10T06:20:50;86686.94;;;16.89;52.92
43838;BME280;65998;46.256;7.534;2023-05-10T06:23:16;86679.28;;;16.90;52.72
43838;BME280;65998;46.256;7.534;2023-05-10T06:25:42;86682.81;;;16.88;52.82
43838;BME280;65998;46.256;7.534;2023-05-10T06:28:08;86680.03;;;16.88;52.73
43838;BME280;65998;46.256;7.534;2023-05-10T06:30:35;86677.94;;;16.89;52.49
43838;BME280;65998;46.256;7.534;2023-05-10T06:33:01;86682.81;;;16.88;52.67
43838;BME280;65998;46.256;7.534;2023-05-10T06:35:28;86683.50;;;16.89;52.60
43838;BME280;65998;46.256;7.534;2023-05-10T06:37:54;86684.91;;;16.88;52.43
43838;BME280;65998;46.256;7.534;2023-05-10T06:40:20;86681.47;;;16.87;52.46
43838;BME280;65998;46.256;7.534;2023-05-10T06:42:47;86677.94;;;16.89;52.48
43838;BME280;65998;46.256;7.534;2023-05-10T06:45:14;86688.38;;;16.88;52.37
43838;BME280;65998;46.256;7.534;2023-05-10T06:47:40;86682.88;;;16.86;52.24
43838;BME280;65998;46.256;7.534;2023-05-10T06:50:10;86686.25;;;16.89;52.34
43838;BME280;65998;46.256;7.534;2023-05-10T06:52:36;86684.31;;;16.85;52.33
43838;BME280;65998;46.256;7.534;2023-05-10T06:55:03;86691.22;;;16.86;52.43
43838;BME280;65998;46.256;7.534;2023-05-10T06:57:29;86691.22;;;16.86;52.40
43838;BME280;65998;46.256;7.534;2023-05-10T06:59:55;86701.63;;;16.86;52.26
43838;BME280;65998;46.256;7.534;2023-05-10T07:02:20;86703.06;;;16.85;52.38
43838;BME280;65998;46.256;7.534;2023-05-10T07:04:47;86701.63;;;16.86;52.56
43838;BME280;65998;46.256;7.534;2023-05-10T07:07:13;86698.88;;;16.86;52.51
43838;BME280;65998;46.256;7.534;2023-05-10T07:09:40;86701.03;;;16.83;52.43
43838;BME280;65998;46.256;7.534;2023-05-10T07:12:06;86690.63;;;16.84;52.40
43838;BME280;65998;46.256;7.534;2023-05-10T07:14:32;86690.53;;;16.86;52.50
43838;BME280;65998;46.256;7.534;2023-05-10T07:16:57;86692.72;;;16.83;52.53
43838;BME280;65998;46.256;7.534;2023-05-10T07:19:23;86694.81;;;16.83;52.42
43838;BME280;65998;46.256;7.534;2023-05-10T07:21:49;86698.34;;;16.81;52.43
43838;BME280;65998;46.256;7.534;2023-05-10T07:24:15;86698.34;;;16.81;52.48
43838;BME280;65998;46.256;7.534;2023-05-10T07:26:41;86694.88;;;16.81;52.36
43838;BME280;65998;46.256;7.534;2023-05-10T07:29:07;86697.00;;;16.80;52.42
43838;BME280;65998;46.256;7.534;2023-05-10T07:31:32;86694.88;;;16.81;52.32
43838;BME280;65998;46.256;7.534;2023-05-10T07:33:58;86699.09;;;16.80;52.45
43838;BME280;65998;46.256;7.534;2023-05-10T07:36:24;86704.63;;;16.80;52.34
43838;BME280;65998;46.256;7.534;2023-05-10T07:38:50;86694.22;;;16.80;52.38
43838;BME280;65998;46.256;7.534;2023-05-10T07:41:16;86701.19;;;16.79;52.29
43838;BME280;65998;46.256;7.534;2023-05-10T07:43:42;86700.50;;;16.79;52.27
43838;BME280;65998;46.256;7.534;2023-05-10T07:46:07;86697.75;;;16.79;52.29
43838;BME280;65998;46.256;7.534;2023-05-10T07:48:33;86700.50;;;16.79;52.27
43838;BME280;65998;46.256;7.534;2023-05-10T07:50:59;86704.72;;;16.78;52.10
43838;BME280;65998;46.256;7.534;2023-05-10T07:53:26;86699.84;;;16.78;52.14
43838;BME280;65998;46.256;7.534;2023-05-10T07:55:54;86694.28;;;16.78;52.10
43838;BME280;65998;46.256;7.534;2023-05-10T07:58:23;86701.94;;;16.78;52.04
43838;BME280;65998;46.256;7.534;2023-05-10T08:00:48;86695.03;;;16.77;51.88
43838;BME280;65998;46.256;7.534;2023-05-10T08:03:14;86697.13;;;16.76;51.89
43838;BME280;65998;46.256;7.534;2023-05-10T08:05:40;86706.13;;;16.77;52.05
43838;BME280;65998;46.256;7.534;2023-05-10T08:08:06;86697.13;;;16.76;51.82
43838;BME280;65998;46.256;7.534;2023-05-10T08:10:32;86697.13;;;16.76;51.87
43838;BME280;65998;46.256;7.534;2023-05-10T08:12:58;86688.81;;;16.76;51.76
43838;BME280;65998;46.256;7.534;2023-05-10T08:15:24;86700.59;;;16.77;51.71
43838;BME280;65998;46.256;7.534;2023-05-10T08:17:53;86693.63;;;16.78;51.93
43838;BME280;65998;46.256;7.534;2023-05-10T08:20:19;86689.50;;;16.77;51.88
43838;BME280;65998;46.256;7.534;2023-05-10T08:22:45;86692.25;;;16.77;51.80
43838;BME280;65998;46.256;7.534;2023-05-10T08:25:11;86693.69;;;16.76;51.82
43838;BME280;65998;46.256;7.534;2023-05-10T08:27:37;86692.25;;;16.77;51.74
43838;BME280;65998;46.256;7.534;2023-05-10T08:30:03;86692.94;;;16.77;51.82
43838;BME280;65998;46.256;7.534;2023-05-10T08:32:29;86688.81;;;16.76;51.76
43838;BME280;65998;46.256;7.534;2023-05-10T08:34:55;86695.03;;;16.77;51.81
43838;BME280;65998;46.256;7.534;2023-05-10T08:37:22;86692.25;;;16.77;51.75
43838;BME280;65998;46.256;7.534;2023-05-10T08:39:48;86686.72;;;16.77;51.54
43838;BME280;65998;46.256;7.534;2023-05-10T08:42:17;86683.88;;;16.79;51.56
43838;BME280;65998;46.256;7.534;2023-05-10T08:44:45;86692.19;;;16.79;51.43
43838;BME280;65998;46.256;7.534;2023-05-10T08:47:15;86692.19;;;16.79;51.35
43838;BME280;65998;46.256;7.534;2023-05-10T08:49:43;86692.19;;;16.79;51.53
43838;BME280;65998;46.256;7.534;2023-05-10T08:52:11;86681.75;;;16.79;51.52
43838;BME280;65998;46.256;7.534;2023-05-10T08:54:38;86695.63;;;16.79;51.37
43838;BME280;65998;46.256;7.534;2023-05-10T08:57:04;86697.06;;;16.78;51.36
43838;BME280;65998;46.256;7.534;2023-05-10T08:59:31;86691.50;;;16.78;51.29
43838;BME280;65998;46.256;7.534;2023-05-10T09:01:58;86695.63;;;16.79;51.21
43838;BME280;65998;46.256;7.534;2023-05-10T09:04:24;86690.84;;;16.78;51.23
43838;BME280;65998;46.256;7.534;2023-05-10T09:06:50;86695.63;;;16.79;51.30
43838;BME280;65998;46.256;7.534;2023-05-10T09:09:17;86687.31;;;16.79;51.26
43838;BME280;65998;46.256;7.534;2023-05-10T09:11:44;86691.50;;;16.78;51.10
43838;BME280;65998;46.256;7.534;2023-05-10T09:14:10;86695.63;;;16.79;51.15
43838;BME280;65998;46.256;7.534;2023-05-10T09:16:40;86685.22;;;16.80;51.24
43838;BME280;65998;46.256;7.534;2023-05-10T09:19:06;86689.41;;;16.79;51.23
43838;BME280;65998;46.256;7.534;2023-05-10T09:21:32;86690.16;;;16.77;51.07
43838;BME280;65998;46.256;7.534;2023-05-10T09:24:02;86683.13;;;16.80;51.01
43838;BME280;65998;46.256;7.534;2023-05-10T09:26:29;86683.19;;;16.78;50.95
43838;BME280;65998;46.256;7.534;2023-05-10T09:28:59;86684.53;;;16.79;51.10
43838;BME280;65998;46.256;7.534;2023-05-10T09:31:46;86673.38;;;16.81;50.86
43838;BME280;65998;46.256;7.534;2023-05-10T09:34:18;86672.69;;;16.81;50.92
43838;BME280;65998;46.256;7.534;2023-05-10T09:36:59;86672.69;;;16.81;50.87
43838;BME280;65998;46.256;7.534;2023-05-10T09:39:35;86672.00;;;16.80;50.95
43838;BME280;65998;46.256;7.534;2023-05-10T09:42:03;86668.56;;;16.80;50.84
43838;BME280;65998;46.256;7.534;2023-05-10T09:44:31;86672.75;;;16.79;50.63
43838;BME280;65998;46.256;7.534;2023-05-10T09:46:57;86665.88;;;16.78;50.78
43838;BME280;65998;46.256;7.534;2023-05-10T09:49:22;86667.97;;;16.77;50.78
43838;BME280;65998;46.256;7.534;2023-05-10T09:52:08;86677.56;;;16.80;50.44
43838;BME280;65998;46.256;7.534;2023-05-10T09:54:34;86669.31;;;16.78;50.57
43838;BME280;65998;46.256;7.534;2023-05-10T09:57:00;86672.09;;;16.78;50.56
43838;BME280;65998;46.256;7.534;2023-05-10T09:59:27;86674.88;;;16.78;50.51
43838;BME280;65998;46.256;7.534;2023-05-10T10:01:58;86669.91;;;16.81;50.34
43838;BME280;65998;46.256;7.534;2023-05-10T10:04:25;86673.44;;;16.79;50.50
43838;BME280;65998;46.256;7.534;2023-05-10T10:07:04;86676.13;;;16.81;50.20
43838;BME280;65998;46.256;7.534;2023-05-10T10:09:30;86667.22;;;16.79;50.42
43838;BME280;65998;46.256;7.534;2023-05-10T10:11:57;86672.75;;;16.79;50.36
43838;BME280;65998;46.256;7.534;2023-05-10T10:14:24;86672.75;;;16.79;50.30
43838;BME280;65998;46.256;7.534;2023-05-10T10:16:50;86665.78;;;16.80;50.33
43838;BME280;65998;46.256;7.534;2023-05-10T10:19:18;86673.38;;;16.81;50.22
43838;BME280;65998;46.256;7.534;2023-05-10T10:21:44;86674.13;;;16.80;50.14
43838;BME280;65998;46.256;7.534;2023-05-10T10:24:10;86668.56;;;16.80;50.28
43838;BME280;65998;46.256;7.534;2023-05-10T10:26:36;86670.59;;;16.81;50.23
43838;BME280;65998;46.256;7.534;2023-05-10T10:34:28;86667.06;;;16.83;50.19
43838;BME280;65998;46.256;7.534;2023-05-10T10:36:55;86668.50;;;16.82;50.21
43838;BME280;65998;46.256;7.534;2023-05-10T10:39:22;86668.50;;;16.82;50.11
43838;BME280;65998;46.256;7.534;2023-05-10T10:41:50;86667.75;;;16.83;50.26
43838;BME280;65998;46.256;7.534;2023-05-10T10:44:23;86669.09;;;16.84;50.05
43838;BME280;65998;46.256;7.534;2023-05-10T10:47:05;86670.44;;;16.85;50.11
43838;BME280;65998;46.256;7.534;2023-05-10T10:49:33;86665.63;;;16.84;50.13
43838;BME280;65998;46.256;7.534;2023-05-10T10:52:31;86658.66;;;16.85;49.99
43838;BME280;65998;46.256;7.534;2023-05-10T10:55:19;86664.88;;;16.85;50.17
43838;BME280;65998;46.256;7.534;2023-05-10T10:57:53;86664.88;;;16.85;50.12
43838;BME280;65998;46.256;7.534;2023-05-10T11:00:30;86659.34;;;16.85;50.02
43838;BME280;65998;46.256;7.534;2023-05-10T11:03:08;86657.91;;;16.86;50.09
43838;BME280;65998;46.256;7.534;2023-05-10T11:05:49;86646.13;;;16.86;50.21
43838;BME280;65998;46.256;7.534;2023-05-10T11:08:17;86647.63;;;16.83;50.16
43838;BME280;65998;46.256;7.534;2023-05-10T11:13:32;86645.47;;;16.85;50.01
43838;BME280;65998;46.256;7.534;2023-05-10T11:16:10;86637.81;;;16.86;49.93
43838;BME280;65998;46.256;7.534;2023-05-10T11:18:37;86638.56;;;16.84;50.13
43838;BME280;65998;46.256;7.534;2023-05-10T11:21:03;86640.66;;;16.84;50.09
43838;BME280;65998;46.256;7.534;2023-05-10T11:23:31;86642.69;;;16.85;50.03
43838;BME280;65998;46.256;7.534;2023-05-10T11:25:58;86638.56;;;16.84;50.01
43838;BME280;65998;46.256;7.534;2023-05-10T11:28:26;86642.69;;;16.85;50.23
43838;BME280;65998;46.256;7.534;2023-05-10T11:30:52;86641.34;;;16.84;50.16
43838;BME280;65998;46.256;7.534;2023-05-10T11:33:19;86637.88;;;16.84;50.18
43838;BME280;65998;46.256;7.534;2023-05-10T11:35:45;86644.78;;;16.85;50.24
43838;BME280;65998;46.256;7.534;2023-05-10T11:38:13;86632.94;;;16.86;50.16
43838;BME280;65998;46.256;7.534;2023-05-10T11:40:40;86640.59;;;16.86;50.04
43838;BME280;65998;46.256;7.534;2023-05-10T11:43:06;86642.69;;;16.85;50.09
43838;BME280;65998;46.256;7.534;2023-05-10T11:45:34;86633.63;;;16.87;50.14
43838;BME280;65998;46.256;7.534;2023-05-10T11:48:01;86629.50;;;16.86;50.11
43838;BME280;65998;46.256;7.534;2023-05-10T11:50:27;86635.03;;;16.86;50.16
43838;BME280;65998;46.256;7.534;2023-05-10T11:52:56;86634.97;;;16.88;50.29
43838;BME280;65998;46.256;7.534;2023-05-10T11:55:22;86636.38;;;16.87;50.24
43838;BME280;65998;46.256;7.534;2023-05-10T11:57:52;86633.53;;;16.89;50.19
43838;BME280;65998;46.256;7.534;2023-05-10T12:00:18;86638.47;;;16.86;50.09
43838;BME280;65998;46.256;7.534;2023-05-10T12:02:44;86635.72;;;16.86;50.15
43838;BME280;65998;46.256;7.534;2023-05-10T12:05:10;86639.16;;;16.87;50.29
43838;BME280;65998;46.256;7.534;2023-05-10T12:07:36;86632.25;;;16.86;50.37
43838;BME280;65998;46.256;7.534;2023-05-10T12:10:12;86625.88;;;16.89;50.22
43838;BME280;65998;46.256;7.534;2023-05-10T12:12:43;86623.09;;;16.89;50.12
43838;BME280;65998;46.256;7.534;2023-05-10T12:15:20;86633.47;;;16.91;50.16
43838;BME280;65998;46.256;7.534;2023-05-10T12:17:47;86630.84;;;16.87;50.32
43838;BME280;65998;46.256;7.534;2023-05-10T12:20:22;86627.22;;;16.90;50.19
43838;BME280;65998;46.256;7.534;2023-05-10T12:22:50;86631.50;;;16.87;50.13
43838;BME280;65998;46.256;7.534;2023-05-10T12:25:18;86627.22;;;16.90;50.12
43838;BME280;65998;46.256;7.534;2023-05-10T12:28:08;86629.94;;;16.92;50.06
43838;BME280;65998;46.256;7.534;2023-05-10T12:30:35;86625.13;;;16.91;50.27
43838;BME280;65998;46.256;7.534;2023-05-10T12:33:11;86625.81;;;16.91;50.07
43838;BME280;65998;46.256;7.534;2023-05-10T12:35:58;86623.69;;;16.92;49.87
43838;BME280;65998;46.256;7.534;2023-05-10T12:38:27;86627.91;;;16.91;50.18
43838;BME280;65998;46.256;7.534;2023-05-10T12:40:53;86622.44;;;16.89;50.10
43838;BME280;65998;46.256;7.534;2023-05-10T12:43:19;86623.09;;;16.89;50.21
43838;BME280;65998;46.256;7.534;2023-05-10T12:45:45;86623.78;;;16.90;50.07
43838;BME280;65998;46.256;7.534;2023-05-10T12:48:11;86623.78;;;16.90;50.00
43838;BME280;65998;46.256;7.534;2023-05-10T12:50:36;86625.81;;;16.91;50.24
43838;BME280;65998;46.256;7.534;2023-05-10T12:53:02;86623.69;;;16.92;50.22
43838;BME280;65998;46.256;7.534;2023-05-10T12:55:28;86623.69;;;16.92;50.13
43838;BME280;65998;46.256;7.534;2023-05-10T12:57:54;86614.03;;;16.91;50.23
43838;BME280;65998;46.256;7.534;2023-05-10T13:00:20;86623.69;;;16.92;50.24
43838;BME280;65998;46.256;7.534;2023-05-10T13:02:46;86623.69;;;16.92;50.27
43838;BME280;65998;46.256;7.534;2023-05-10T13:05:12;86627.16;;;16.92;50.15
43838;BME280;65998;46.256;7.534;2023-05-10T13:07:37;86632.69;;;16.92;50.12
43838;BME280;65998;46.256;7.534;2023-05-10T13:10:04;86636.16;;;16.93;50.27
43838;BME280;65998;46.256;7.534;2023-05-10T13:12:30;86638.94;;;16.93;50.13
43838;BME280;65998;46.256;7.534;2023-05-10T13:14:56;86638.94;;;16.93;50.18
43838;BME280;65998;46.256;7.534;2023-05-10T13:17:22;86639.59;;;16.94;50.14
43838;BME280;65998;46.256;7.534;2023-05-10T13:19:48;86648.59;;;16.94;50.19
43838;BME280;65998;46.256;7.534;2023-05-10T13:22:14;86645.16;;;16.94;50.28
43838;BME280;65998;46.256;7.534;2023-05-10T13:24:39;86640.28;;;16.94;50.30
43838;BME280;65998;46.256;7.534;2023-05-10T13:27:05;86640.28;;;16.94;50.33
43838;BME280;65998;46.256;7.534;2023-05-10T13:29:31;86634.72;;;16.94;50.32
43838;BME280;65998;46.256;7.534;2023-05-10T13:31:57;86635.41;;;16.95;50.16